sensor_id;sensor_type;location;lat;lon;timestamp;P1;durP1;ratioP1;P2;durP2;ratioP2
70342;SDS011;57767;42.068;24.752;2023-03-31T00:00:44;6.93;;;3.55;;
70342;SDS011;57767;42.068;24.752;2023-03-31T00:01:49;5.25;;;3.50;;
70342;SDS011;57767;42.068;24.752;2023-03-31T00:02:53;8.73;;;3.85;;
70342;SDS011;57767;42.068;24.752;2023-03-31T00:03:56;7.65;;;4.03;;
70342;SDS011;57767;42.068;24.752;2023-03-31T00:05:06;5.32;;;3.40;;
70342;SDS011;57767;42.068;24.752;2023-03-31T00:06:10;6.20;;;3.58;;
70342;SDS011;57767;42.068;24.752;2023-03-31T00:07:19;9.57;;;3.50;;
70342;SDS011;57767;42.068;24.752;2023-03-31T00:08:28;8.43;;;3.42;;
70342;SDS011;57767;42.068;24.752;2023-03-31T00:09:36;5.78;;;4.00;;
70342;SDS011;57767;42.068;24.752;2023-03-31T00:10:37;6.47;;;4.00;;
70342;SDS011;57767;42.068;24.752;2023-03-31T00:11:45;4.65;;;3.70;;
70342;SDS011;57767;42.068;24.752;2023-03-31T00:12:48;7.22;;;4.00;;
70342;SDS011;57767;42.068;24.752;2023-03-31T00:13:49;7.00;;;3.20;;
70342;SDS011;57767;42.068;24.752;2023-03-31T00:14:51;4.43;;;3.38;;
70342;SDS011;57767;42.068;24.752;2023-03-31T00:15:57;5.55;;;2.80;;
70342;SDS011;57767;42.068;24.752;2023-03-31T00:17:07;6.53;;;3.88;;
70342;SDS011;57767;42.068;24.752;2023-03-31T00:18:09;6.43;;;3.90;;
70342;SDS011;57767;42.068;24.752;2023-03-31T00:19:11;4.25;;;3.45;;
70342;SDS011;57767;42.068;24.752;2023-03-31T00:20:23;9.68;;;3.80;;
70342;SDS011;57767;42.068;24.752;2023-03-31T00:21:25;9.55;;;4.13;;
70342;SDS011;57767;42.068;24.752;2023-03-31T00:22:30;6.97;;;3.50;;
70342;SDS011;57767;42.068;24.752;2023-03-31T00:23:32;4.95;;;3.35;;
70342;SDS011;57767;42.068;24.752;2023-03-31T00:24:34;6.28;;;3.78;;
70342;SDS011;57767;42.068;24.752;2023-03-31T00:25:39;9.15;;;4.63;;
70342;SDS011;57767;42.068;24.752;2023-03-31T00:26:43;6.05;;;4.25;;
70342;SDS011;57767;42.068;24.752;2023-03-31T00:27:45;7.30;;;3.83;;
70342;SDS011;57767;42.068;24.752;2023-03-31T00:28:51;7.28;;;3.80;;
70342;SDS011;57767;42.068;24.752;2023-03-31T00:29:53;7.43;;;3.80;;
70342;SDS011;57767;42.068;24.752;2023-03-31T00:30:58;5.78;;;3.97;;
70342;SDS011;57767;42.068;24.752;2023-03-31T00:32:01;9.32;;;4.60;;
70342;SDS011;57767;42.068;24.752;2023-03-31T00:33:03;5.70;;;3.80;;
70342;SDS011;57767;42.068;24.752;2023-03-31T00:34:05;8.05;;;3.45;;
70342;SDS011;57767;42.068;24.752;2023-03-31T00:35:08;5.45;;;3.92;;
70342;SDS011;57767;42.068;24.752;2023-03-31T00:36:10;5.82;;;3.80;;
70342;SDS011;57767;42.068;24.752;2023-03-31T00:37:12;5.53;;;3.60;;
70342;SDS011;57767;42.068;24.752;2023-03-31T00:38:15;5.88;;;3.63;;
70342;SDS011;57767;42.068;24.752;2023-03-31T00:39:17;8.15;;;4.38;;
70342;SDS011;57767;42.068;24.752;2023-03-31T00:40:19;8.68;;;3.50;;
70342;SDS011;57767;42.068;24.752;2023-03-31T00:41:21;6.65;;;4.13;;
70342;SDS011;57767;42.068;24.752;2023-03-31T00:42:23;5.82;;;3.75;;
70342;SDS011;57767;42.068;24.752;2023-03-31T00:43:32;6.43;;;3.97;;
70342;SDS011;57767;42.068;24.752;2023-03-31T00:44:37;6.65;;;3.70;;
70342;SDS011;57767;42.068;24.752;2023-03-31T00:47:22;5.88;;;3.80;;
70342;SDS011;57767;42.068;24.752;2023-03-31T00:48:24;7.45;;;3.63;;
70342;SDS011;57767;42.068;24.752;2023-03-31T00:49:28;5.93;;;3.60;;
70342;SDS011;57767;42.068;24.752;2023-03-31T00:50:36;5.20;;;3.70;;
70342;SDS011;57767;42.068;24.752;2023-03-31T00:51:53;8.40;;;3.80;;
70342;SDS011;57767;42.068;24.752;2023-03-31T00:53:01;6.22;;;4.00;;
70342;SDS011;57767;42.068;24.752;2023-03-31T00:54:07;6.47;;;3.97;;
70342;SDS011;57767;42.068;24.752;2023-03-31T00:55:11;5.30;;;4.32;;
70342;SDS011;57767;42.068;24.752;2023-03-31T00:56:17;5.68;;;3.95;;
70342;SDS011;57767;42.068;24.752;2023-03-31T00:57:19;6.30;;;3.85;;
70342;SDS011;57767;42.068;24.752;2023-03-31T00:58:23;5.82;;;3.83;;
70342;SDS011;57767;42.068;24.752;2023-03-31T00:59:29;6.68;;;3.88;;
70342;SDS011;57767;42.068;24.752;2023-03-31T01:00:35;6.68;;;4.03;;
70342;SDS011;57767;42.068;24.752;2023-03-31T01:01:37;4.38;;;3.63;;
70342;SDS011;57767;42.068;24.752;2023-03-31T01:02:47;10.77;;;3.90;;
70342;SDS011;57767;42.068;24.752;2023-03-31T01:03:56;7.03;;;4.20;;
70342;SDS011;57767;42.068;24.752;2023-03-31T01:04:59;7.47;;;4.13;;
70342;SDS011;57767;42.068;24.752;2023-03-31T01:06:03;8.95;;;4.85;;
70342;SDS011;57767;42.068;24.752;2023-03-31T01:07:09;9.05;;;4.95;;
70342;SDS011;57767;42.068;24.752;2023-03-31T01:08:19;10.10;;;4.35;;
70342;SDS011;57767;42.068;24.752;2023-03-31T01:09:24;9.05;;;4.70;;
70342;SDS011;57767;42.068;24.752;2023-03-31T01:10:35;8.38;;;5.25;;
70342;SDS011;57767;42.068;24.752;2023-03-31T01:11:42;9.30;;;4.72;;
70342;SDS011;57767;42.068;24.752;2023-03-31T01:12:48;10.77;;;5.13;;
70342;SDS011;57767;42.068;24.752;2023-03-31T01:13:53;8.45;;;4.90;;
70342;SDS011;57767;42.068;24.752;2023-03-31T01:14:56;7.90;;;5.53;;
70342;SDS011;57767;42.068;24.752;2023-03-31T01:16:00;12.77;;;5.10;;
70342;SDS011;57767;42.068;24.752;2023-03-31T01:17:01;9.93;;;5.72;;
70342;SDS011;57767;42.068;24.752;2023-03-31T01:18:05;8.00;;;4.97;;
70342;SDS011;57767;42.068;24.752;2023-03-31T01:19:10;9.43;;;5.05;;
70342;SDS011;57767;42.068;24.752;2023-03-31T01:22:06;6.95;;;5.13;;
70342;SDS011;57767;42.068;24.752;2023-03-31T01:24:52;7.80;;;5.65;;
70342;SDS011;57767;42.068;24.752;2023-03-31T01:30:24;9.20;;;5.47;;
70342;SDS011;57767;42.068;24.752;2023-03-31T01:33:22;8.43;;;5.30;;
70342;SDS011;57767;42.068;24.752;2023-03-31T01:35:00;8.23;;;5.32;;
70342;SDS011;57767;42.068;24.752;2023-03-31T01:42:04;11.82;;;6.95;;
70342;SDS011;57767;42.068;24.752;2023-03-31T01:45:11;10.38;;;6.40;;
70342;SDS011;57767;42.068;24.752;2023-03-31T01:46:03;10.82;;;6.82;;
70342;SDS011;57767;42.068;24.752;2023-03-31T01:50:22;10.10;;;5.95;;
70342;SDS011;57767;42.068;24.752;2023-03-31T01:53:25;11.25;;;5.85;;
70342;SDS011;57767;42.068;24.752;2023-03-31T01:55:34;8.18;;;5.57;;
70342;SDS011;57767;42.068;24.752;2023-03-31T01:56:46;9.20;;;5.45;;
70342;SDS011;57767;42.068;24.752;2023-03-31T01:58:05;8.57;;;5.03;;
70342;SDS011;57767;42.068;24.752;2023-03-31T02:00:30;6.97;;;5.90;;
70342;SDS011;57767;42.068;24.752;2023-03-31T02:03:44;13.23;;;6.72;;
70342;SDS011;57767;42.068;24.752;2023-03-31T02:04:51;12.43;;;6.90;;
70342;SDS011;57767;42.068;24.752;2023-03-31T02:06:04;8.30;;;6.10;;
70342;SDS011;57767;42.068;24.752;2023-03-31T02:07:12;9.10;;;5.35;;
70342;SDS011;57767;42.068;24.752;2023-03-31T02:08:25;10.00;;;6.00;;
70342;SDS011;57767;42.068;24.752;2023-03-31T02:09:34;6.93;;;5.13;;
70342;SDS011;57767;42.068;24.752;2023-03-31T02:10:41;6.72;;;4.95;;
70342;SDS011;57767;42.068;24.752;2023-03-31T02:11:46;6.35;;;4.28;;
70342;SDS011;57767;42.068;24.752;2023-03-31T02:12:49;6.32;;;4.20;;
70342;SDS011;57767;42.068;24.752;2023-03-31T02:13:53;6.03;;;4.25;;
70342;SDS011;57767;42.068;24.752;2023-03-31T02:14:57;6.35;;;4.03;;
70342;SDS011;57767;42.068;24.752;2023-03-31T02:16:01;4.75;;;3.88;;
70342;SDS011;57767;42.068;24.752;2023-03-31T02:17:10;6.47;;;4.10;;
70342;SDS011;57767;42.068;24.752;2023-03-31T02:18:19;5.85;;;4.00;;
70342;SDS011;57767;42.068;24.752;2023-03-31T02:19:34;6.13;;;3.92;;
70342;SDS011;57767;42.068;24.752;2023-03-31T02:20:40;4.95;;;3.70;;
70342;SDS011;57767;42.068;24.752;2023-03-31T02:21:47;5.90;;;3.58;;
70342;SDS011;57767;42.068;24.752;2023-03-31T02:22:52;6.93;;;3.60;;
70342;SDS011;57767;42.068;24.752;2023-03-31T02:23:56;9.43;;;3.90;;
70342;SDS011;57767;42.068;24.752;2023-03-31T02:25:02;5.65;;;3.50;;
70342;SDS011;57767;42.068;24.752;2023-03-31T02:26:08;4.75;;;3.75;;
70342;SDS011;57767;42.068;24.752;2023-03-31T02:27:16;4.35;;;3.22;;
70342;SDS011;57767;42.068;24.752;2023-03-31T02:28:23;6.63;;;3.55;;
70342;SDS011;57767;42.068;24.752;2023-03-31T02:29:29;6.13;;;3.17;;
70342;SDS011;57767;42.068;24.752;2023-03-31T02:30:35;5.13;;;3.53;;
70342;SDS011;57767;42.068;24.752;2023-03-31T02:31:48;4.70;;;3.17;;
70342;SDS011;57767;42.068;24.752;2023-03-31T02:32:57;5.07;;;4.07;;
70342;SDS011;57767;42.068;24.752;2023-03-31T02:34:00;3.85;;;3.30;;
70342;SDS011;57767;42.068;24.752;2023-03-31T02:35:03;9.35;;;7.07;;
70342;SDS011;57767;42.068;24.752;2023-03-31T02:36:07;9.18;;;6.53;;
70342;SDS011;57767;42.068;24.752;2023-03-31T02:37:10;9.15;;;6.53;;
70342;SDS011;57767;42.068;24.752;2023-03-31T02:38:13;13.32;;;8.90;;
70342;SDS011;57767;42.068;24.752;2023-03-31T02:39:16;14.52;;;10.55;;
70342;SDS011;57767;42.068;24.752;2023-03-31T02:40:21;13.05;;;9.35;;
70342;SDS011;57767;42.068;24.752;2023-03-31T02:41:23;14.00;;;9.82;;
70342;SDS011;57767;42.068;24.752;2023-03-31T02:42:25;11.65;;;8.93;;
70342;SDS011;57767;42.068;24.752;2023-03-31T02:43:27;11.75;;;7.68;;
70342;SDS011;57767;42.068;24.752;2023-03-31T02:44:29;11.45;;;7.82;;
70342;SDS011;57767;42.068;24.752;2023-03-31T02:45:53;8.93;;;6.45;;
70342;SDS011;57767;42.068;24.752;2023-03-31T02:46:53;9.90;;;5.78;;
70342;SDS011;57767;42.068;24.752;2023-03-31T02:47:55;12.05;;;7.15;;
70342;SDS011;57767;42.068;24.752;2023-03-31T02:48:58;9.50;;;6.47;;
70342;SDS011;57767;42.068;24.752;2023-03-31T02:50:02;10.27;;;6.22;;
70342;SDS011;57767;42.068;24.752;2023-03-31T02:52:14;8.13;;;5.60;;
70342;SDS011;57767;42.068;24.752;2023-03-31T02:53:27;9.13;;;5.00;;
70342;SDS011;57767;42.068;24.752;2023-03-31T03:05:27;7.18;;;4.90;;
70342;SDS011;57767;42.068;24.752;2023-03-31T03:09:30;8.80;;;4.82;;
70342;SDS011;57767;42.068;24.752;2023-03-31T03:10:43;8.18;;;4.15;;
70342;SDS011;57767;42.068;24.752;2023-03-31T03:14:45;6.75;;;3.65;;
70342;SDS011;57767;42.068;24.752;2023-03-31T03:15:58;9.85;;;3.80;;
70342;SDS011;57767;42.068;24.752;2023-03-31T03:17:12;7.60;;;4.10;;
70342;SDS011;57767;42.068;24.752;2023-03-31T03:18:19;5.65;;;3.80;;
70342;SDS011;57767;42.068;24.752;2023-03-31T03:19:21;7.28;;;4.10;;
70342;SDS011;57767;42.068;24.752;2023-03-31T03:20:24;7.80;;;4.38;;
70342;SDS011;57767;42.068;24.752;2023-03-31T03:21:26;6.35;;;3.65;;
70342;SDS011;57767;42.068;24.752;2023-03-31T03:22:28;5.43;;;3.75;;
70342;SDS011;57767;42.068;24.752;2023-03-31T03:23:30;7.40;;;4.07;;
70342;SDS011;57767;42.068;24.752;2023-03-31T03:24:33;5.82;;;3.70;;
70342;SDS011;57767;42.068;24.752;2023-03-31T03:25:35;10.23;;;4.70;;
70342;SDS011;57767;42.068;24.752;2023-03-31T03:26:38;6.30;;;4.10;;
70342;SDS011;57767;42.068;24.752;2023-03-31T03:27:40;7.50;;;4.15;;
70342;SDS011;57767;42.068;24.752;2023-03-31T03:28:42;6.85;;;4.57;;
70342;SDS011;57767;42.068;24.752;2023-03-31T03:29:44;5.72;;;4.00;;
70342;SDS011;57767;42.068;24.752;2023-03-31T03:30:45;8.75;;;4.50;;
70342;SDS011;57767;42.068;24.752;2023-03-31T03:31:47;12.88;;;4.90;;
70342;SDS011;57767;42.068;24.752;2023-03-31T03:32:49;7.63;;;4.88;;
70342;SDS011;57767;42.068;24.752;2023-03-31T03:33:51;8.23;;;5.40;;
70342;SDS011;57767;42.068;24.752;2023-03-31T03:34:53;10.13;;;5.07;;
70342;SDS011;57767;42.068;24.752;2023-03-31T03:35:55;10.27;;;5.13;;
70342;SDS011;57767;42.068;24.752;2023-03-31T03:36:56;7.70;;;4.38;;
70342;SDS011;57767;42.068;24.752;2023-03-31T03:37:58;7.47;;;4.60;;
70342;SDS011;57767;42.068;24.752;2023-03-31T03:39:00;6.95;;;4.25;;
70342;SDS011;57767;42.068;24.752;2023-03-31T03:40:02;7.50;;;4.78;;
70342;SDS011;57767;42.068;24.752;2023-03-31T03:41:08;8.90;;;4.53;;
70342;SDS011;57767;42.068;24.752;2023-03-31T03:42:10;6.95;;;4.22;;
70342;SDS011;57767;42.068;24.752;2023-03-31T03:43:12;6.13;;;4.22;;
70342;SDS011;57767;42.068;24.752;2023-03-31T03:44:14;7.03;;;3.58;;
70342;SDS011;57767;42.068;24.752;2023-03-31T03:45:16;7.10;;;4.05;;
70342;SDS011;57767;42.068;24.752;2023-03-31T03:46:17;6.93;;;4.03;;
70342;SDS011;57767;42.068;24.752;2023-03-31T03:47:19;6.88;;;3.85;;
70342;SDS011;57767;42.068;24.752;2023-03-31T03:48:21;7.38;;;4.10;;
70342;SDS011;57767;42.068;24.752;2023-03-31T03:49:23;6.38;;;4.00;;
70342;SDS011;57767;42.068;24.752;2023-03-31T03:50:25;6.25;;;4.25;;
70342;SDS011;57767;42.068;24.752;2023-03-31T03:51:26;7.45;;;4.10;;
70342;SDS011;57767;42.068;24.752;2023-03-31T03:52:28;7.68;;;4.43;;
70342;SDS011;57767;42.068;24.752;2023-03-31T03:53:30;7.55;;;4.50;;
70342;SDS011;57767;42.068;24.752;2023-03-31T03:54:32;7.88;;;4.63;;
70342;SDS011;57767;42.068;24.752;2023-03-31T03:55:34;7.78;;;4.10;;
70342;SDS011;57767;42.068;24.752;2023-03-31T03:56:35;6.13;;;4.13;;
70342;SDS011;57767;42.068;24.752;2023-03-31T03:57:37;5.68;;;4.20;;
70342;SDS011;57767;42.068;24.752;2023-03-31T03:58:39;6.72;;;4.40;;
70342;SDS011;57767;42.068;24.752;2023-03-31T03:59:41;7.72;;;4.38;;
70342;SDS011;57767;42.068;24.752;2023-03-31T04:00:43;6.03;;;3.97;;
70342;SDS011;57767;42.068;24.752;2023-03-31T04:01:45;15.43;;;4.45;;
70342;SDS011;57767;42.068;24.752;2023-03-31T04:02:47;7.60;;;4.03;;
70342;SDS011;57767;42.068;24.752;2023-03-31T04:03:49;7.60;;;4.40;;
70342;SDS011;57767;42.068;24.752;2023-03-31T04:04:51;9.90;;;4.68;;
70342;SDS011;57767;42.068;24.752;2023-03-31T04:05:53;13.13;;;4.15;;
70342;SDS011;57767;42.068;24.752;2023-03-31T04:06:54;12.05;;;5.55;;
70342;SDS011;57767;42.068;24.752;2023-03-31T04:07:56;8.25;;;5.25;;
70342;SDS011;57767;42.068;24.752;2023-03-31T04:08:58;7.15;;;4.45;;
70342;SDS011;57767;42.068;24.752;2023-03-31T04:10:00;9.10;;;4.20;;
70342;SDS011;57767;42.068;24.752;2023-03-31T04:11:02;6.28;;;3.70;;
70342;SDS011;57767;42.068;24.752;2023-03-31T04:12:04;7.82;;;4.70;;
70342;SDS011;57767;42.068;24.752;2023-03-31T04:13:05;7.90;;;4.35;;
70342;SDS011;57767;42.068;24.752;2023-03-31T04:14:07;9.40;;;5.15;;
70342;SDS011;57767;42.068;24.752;2023-03-31T04:15:09;6.68;;;3.92;;
70342;SDS011;57767;42.068;24.752;2023-03-31T04:16:11;7.00;;;4.20;;
70342;SDS011;57767;42.068;24.752;2023-03-31T04:17:13;5.63;;;3.85;;
70342;SDS011;57767;42.068;24.752;2023-03-31T04:18:16;9.82;;;4.10;;
70342;SDS011;57767;42.068;24.752;2023-03-31T04:19:23;8.85;;;5.00;;
70342;SDS011;57767;42.068;24.752;2023-03-31T04:20:28;8.60;;;5.30;;
70342;SDS011;57767;42.068;24.752;2023-03-31T04:21:31;41.45;;;20.77;;
70342;SDS011;57767;42.068;24.752;2023-03-31T04:22:36;29.08;;;17.58;;
70342;SDS011;57767;42.068;24.752;2023-03-31T04:23:41;14.50;;;6.55;;
70342;SDS011;57767;42.068;24.752;2023-03-31T04:24:47;7.38;;;5.00;;
70342;SDS011;57767;42.068;24.752;2023-03-31T04:25:53;8.88;;;4.72;;
70342;SDS011;57767;42.068;24.752;2023-03-31T04:26:55;8.43;;;4.72;;
70342;SDS011;57767;42.068;24.752;2023-03-31T04:27:58;8.45;;;5.05;;
70342;SDS011;57767;42.068;24.752;2023-03-31T04:28:59;13.82;;;6.00;;
70342;SDS011;57767;42.068;24.752;2023-03-31T04:30:01;11.50;;;6.70;;
70342;SDS011;57767;42.068;24.752;2023-03-31T04:31:03;8.93;;;5.32;;
70342;SDS011;57767;42.068;24.752;2023-03-31T04:32:09;10.30;;;5.18;;
70342;SDS011;57767;42.068;24.752;2023-03-31T04:33:15;9.00;;;5.47;;
70342;SDS011;57767;42.068;24.752;2023-03-31T04:34:17;10.40;;;4.85;;
70342;SDS011;57767;42.068;24.752;2023-03-31T04:35:23;8.23;;;4.88;;
70342;SDS011;57767;42.068;24.752;2023-03-31T04:36:27;5.95;;;4.15;;
70342;SDS011;57767;42.068;24.752;2023-03-31T04:37:31;9.00;;;5.63;;
70342;SDS011;57767;42.068;24.752;2023-03-31T04:38:35;6.93;;;4.75;;
70342;SDS011;57767;42.068;24.752;2023-03-31T04:39:36;10.27;;;5.18;;
70342;SDS011;57767;42.068;24.752;2023-03-31T04:40:38;11.13;;;5.38;;
70342;SDS011;57767;42.068;24.752;2023-03-31T04:41:41;8.40;;;5.07;;
70342;SDS011;57767;42.068;24.752;2023-03-31T04:42:43;9.30;;;4.75;;
70342;SDS011;57767;42.068;24.752;2023-03-31T04:43:45;7.55;;;4.70;;
70342;SDS011;57767;42.068;24.752;2023-03-31T04:44:47;14.38;;;5.35;;
70342;SDS011;57767;42.068;24.752;2023-03-31T04:45:49;10.73;;;5.70;;
70342;SDS011;57767;42.068;24.752;2023-03-31T04:46:51;9.10;;;5.53;;
70342;SDS011;57767;42.068;24.752;2023-03-31T04:47:53;6.18;;;4.40;;
70342;SDS011;57767;42.068;24.752;2023-03-31T04:48:55;8.60;;;4.55;;
70342;SDS011;57767;42.068;24.752;2023-03-31T04:49:59;5.53;;;4.47;;
70342;SDS011;57767;42.068;24.752;2023-03-31T04:51:01;6.78;;;4.97;;
70342;SDS011;57767;42.068;24.752;2023-03-31T04:52:03;9.65;;;4.60;;
70342;SDS011;57767;42.068;24.752;2023-03-31T04:53:05;14.75;;;5.22;;
70342;SDS011;57767;42.068;24.752;2023-03-31T04:54:07;8.48;;;4.70;;
70342;SDS011;57767;42.068;24.752;2023-03-31T04:55:09;12.30;;;4.72;;
70342;SDS011;57767;42.068;24.752;2023-03-31T04:56:11;9.95;;;4.80;;
70342;SDS011;57767;42.068;24.752;2023-03-31T04:57:13;12.18;;;4.80;;
70342;SDS011;57767;42.068;24.752;2023-03-31T04:58:15;7.68;;;4.70;;
70342;SDS011;57767;42.068;24.752;2023-03-31T04:59:17;11.13;;;5.93;;
70342;SDS011;57767;42.068;24.752;2023-03-31T05:00:19;13.27;;;5.63;;
70342;SDS011;57767;42.068;24.752;2023-03-31T05:01:21;7.57;;;5.25;;
70342;SDS011;57767;42.068;24.752;2023-03-31T05:02:23;11.98;;;6.38;;
70342;SDS011;57767;42.068;24.752;2023-03-31T05:03:26;7.20;;;4.20;;
70342;SDS011;57767;42.068;24.752;2023-03-31T05:04:28;8.50;;;5.32;;
70342;SDS011;57767;42.068;24.752;2023-03-31T05:05:29;13.30;;;5.18;;
70342;SDS011;57767;42.068;24.752;2023-03-31T05:06:32;9.63;;;5.75;;
70342;SDS011;57767;42.068;24.752;2023-03-31T05:07:34;9.30;;;5.72;;
70342;SDS011;57767;42.068;24.752;2023-03-31T05:08:35;8.55;;;4.82;;
70342;SDS011;57767;42.068;24.752;2023-03-31T05:09:37;11.45;;;5.38;;
70342;SDS011;57767;42.068;24.752;2023-03-31T05:10:39;10.70;;;5.50;;
70342;SDS011;57767;42.068;24.752;2023-03-31T05:11:41;10.40;;;5.97;;
70342;SDS011;57767;42.068;24.752;2023-03-31T05:12:43;7.35;;;5.15;;
70342;SDS011;57767;42.068;24.752;2023-03-31T05:13:45;10.00;;;5.28;;
70342;SDS011;57767;42.068;24.752;2023-03-31T05:14:47;10.88;;;5.00;;
70342;SDS011;57767;42.068;24.752;2023-03-31T05:15:48;12.00;;;5.05;;
70342;SDS011;57767;42.068;24.752;2023-03-31T05:16:51;12.00;;;5.28;;
70342;SDS011;57767;42.068;24.752;2023-03-31T05:17:58;10.65;;;5.72;;
70342;SDS011;57767;42.068;24.752;2023-03-31T05:19:00;8.85;;;4.88;;
70342;SDS011;57767;42.068;24.752;2023-03-31T05:20:02;10.63;;;4.78;;
70342;SDS011;57767;42.068;24.752;2023-03-31T05:21:16;11.63;;;5.18;;
70342;SDS011;57767;42.068;24.752;2023-03-31T05:22:19;8.60;;;5.10;;
70342;SDS011;57767;42.068;24.752;2023-03-31T05:23:21;11.52;;;5.00;;
70342;SDS011;57767;42.068;24.752;2023-03-31T05:24:22;10.60;;;5.70;;
70342;SDS011;57767;42.068;24.752;2023-03-31T05:25:24;12.75;;;5.07;;
70342;SDS011;57767;42.068;24.752;2023-03-31T05:26:26;11.82;;;5.65;;
70342;SDS011;57767;42.068;24.752;2023-03-31T05:27:28;14.02;;;6.18;;
70342;SDS011;57767;42.068;24.752;2023-03-31T05:28:30;9.05;;;5.65;;
70342;SDS011;57767;42.068;24.752;2023-03-31T05:29:32;11.77;;;6.43;;
70342;SDS011;57767;42.068;24.752;2023-03-31T05:30:34;10.15;;;6.45;;
70342;SDS011;57767;42.068;24.752;2023-03-31T05:31:36;12.82;;;7.55;;
70342;SDS011;57767;42.068;24.752;2023-03-31T05:32:38;12.98;;;7.15;;
70342;SDS011;57767;42.068;24.752;2023-03-31T05:33:40;12.50;;;7.38;;
70342;SDS011;57767;42.068;24.752;2023-03-31T05:34:42;10.55;;;6.55;;
70342;SDS011;57767;42.068;24.752;2023-03-31T05:35:44;13.80;;;7.18;;
70342;SDS011;57767;42.068;24.752;2023-03-31T05:36:46;13.43;;;6.50;;
70342;SDS011;57767;42.068;24.752;2023-03-31T05:37:53;12.60;;;6.80;;
70342;SDS011;57767;42.068;24.752;2023-03-31T05:38:55;20.48;;;7.43;;
70342;SDS011;57767;42.068;24.752;2023-03-31T05:39:57;11.48;;;6.60;;
70342;SDS011;57767;42.068;24.752;2023-03-31T05:40:59;12.05;;;6.25;;
70342;SDS011;57767;42.068;24.752;2023-03-31T05:42:01;13.32;;;7.95;;
70342;SDS011;57767;42.068;24.752;2023-03-31T05:43:03;18.90;;;7.50;;
70342;SDS011;57767;42.068;24.752;2023-03-31T05:44:05;14.27;;;6.70;;
70342;SDS011;57767;42.068;24.752;2023-03-31T05:45:07;14.20;;;7.93;;
70342;SDS011;57767;42.068;24.752;2023-03-31T05:46:09;18.63;;;7.05;;
70342;SDS011;57767;42.068;24.752;2023-03-31T05:47:12;18.00;;;7.30;;
70342;SDS011;57767;42.068;24.752;2023-03-31T05:48:14;13.55;;;6.82;;
70342;SDS011;57767;42.068;24.752;2023-03-31T05:49:16;15.82;;;7.43;;
70342;SDS011;57767;42.068;24.752;2023-03-31T05:50:17;16.00;;;7.38;;
70342;SDS011;57767;42.068;24.752;2023-03-31T05:51:19;14.45;;;6.90;;
70342;SDS011;57767;42.068;24.752;2023-03-31T05:52:21;13.52;;;7.57;;
70342;SDS011;57767;42.068;24.752;2023-03-31T05:53:23;11.90;;;6.15;;
70342;SDS011;57767;42.068;24.752;2023-03-31T05:54:26;12.93;;;6.28;;
70342;SDS011;57767;42.068;24.752;2023-03-31T05:55:28;9.88;;;5.85;;
70342;SDS011;57767;42.068;24.752;2023-03-31T05:56:32;9.20;;;6.80;;
70342;SDS011;57767;42.068;24.752;2023-03-31T05:57:34;18.67;;;6.70;;
70342;SDS011;57767;42.068;24.752;2023-03-31T05:58:36;16.65;;;6.90;;
70342;SDS011;57767;42.068;24.752;2023-03-31T05:59:38;14.05;;;6.57;;
70342;SDS011;57767;42.068;24.752;2023-03-31T06:00:42;12.65;;;7.28;;
70342;SDS011;57767;42.068;24.752;2023-03-31T06:01:44;12.55;;;7.00;;
70342;SDS011;57767;42.068;24.752;2023-03-31T06:02:47;12.85;;;7.07;;
70342;SDS011;57767;42.068;24.752;2023-03-31T06:03:49;16.95;;;7.15;;
70342;SDS011;57767;42.068;24.752;2023-03-31T06:04:52;18.05;;;8.38;;
70342;SDS011;57767;42.068;24.752;2023-03-31T06:05:53;14.77;;;6.80;;
70342;SDS011;57767;42.068;24.752;2023-03-31T06:06:56;17.98;;;7.05;;
70342;SDS011;57767;42.068;24.752;2023-03-31T06:07:59;16.42;;;8.45;;
70342;SDS011;57767;42.068;24.752;2023-03-31T06:09:01;14.80;;;8.02;;
70342;SDS011;57767;42.068;24.752;2023-03-31T06:10:03;19.17;;;8.82;;
70342;SDS011;57767;42.068;24.752;2023-03-31T06:11:09;16.55;;;8.38;;
70342;SDS011;57767;42.068;24.752;2023-03-31T06:12:12;19.67;;;9.45;;
70342;SDS011;57767;42.068;24.752;2023-03-31T06:13:14;15.25;;;7.85;;
70342;SDS011;57767;42.068;24.752;2023-03-31T06:14:16;15.20;;;8.93;;
70342;SDS011;57767;42.068;24.752;2023-03-31T06:15:18;16.80;;;8.52;;
70342;SDS011;57767;42.068;24.752;2023-03-31T06:16:20;16.90;;;9.45;;
70342;SDS011;57767;42.068;24.752;2023-03-31T06:17:22;18.67;;;9.48;;
70342;SDS011;57767;42.068;24.752;2023-03-31T06:18:25;16.80;;;8.73;;
70342;SDS011;57767;42.068;24.752;2023-03-31T06:19:28;21.63;;;9.63;;
70342;SDS011;57767;42.068;24.752;2023-03-31T06:20:31;14.40;;;8.98;;
70342;SDS011;57767;42.068;24.752;2023-03-31T06:21:33;22.92;;;9.20;;
70342;SDS011;57767;42.068;24.752;2023-03-31T06:22:35;32.40;;;9.50;;
70342;SDS011;57767;42.068;24.752;2023-03-31T06:23:37;20.23;;;8.18;;
70342;SDS011;57767;42.068;24.752;2023-03-31T06:24:39;26.08;;;9.15;;
70342;SDS011;57767;42.068;24.752;2023-03-31T06:25:40;18.00;;;8.52;;
70342;SDS011;57767;42.068;24.752;2023-03-31T06:26:51;20.40;;;8.18;;
70342;SDS011;57767;42.068;24.752;2023-03-31T06:27:54;18.77;;;8.40;;
70342;SDS011;57767;42.068;24.752;2023-03-31T06:28:56;16.98;;;8.07;;
70342;SDS011;57767;42.068;24.752;2023-03-31T06:29:57;23.00;;;8.18;;
70342;SDS011;57767;42.068;24.752;2023-03-31T06:31:00;19.67;;;8.07;;
70342;SDS011;57767;42.068;24.752;2023-03-31T06:32:03;14.63;;;8.00;;
70342;SDS011;57767;42.068;24.752;2023-03-31T06:33:05;24.35;;;9.23;;
70342;SDS011;57767;42.068;24.752;2023-03-31T06:34:07;17.55;;;8.88;;
70342;SDS011;57767;42.068;24.752;2023-03-31T06:35:09;20.05;;;9.10;;
70342;SDS011;57767;42.068;24.752;2023-03-31T06:36:12;17.40;;;8.32;;
70342;SDS011;57767;42.068;24.752;2023-03-31T06:37:15;23.27;;;7.78;;
70342;SDS011;57767;42.068;24.752;2023-03-31T06:38:17;17.38;;;7.57;;
70342;SDS011;57767;42.068;24.752;2023-03-31T06:39:19;15.90;;;7.47;;
70342;SDS011;57767;42.068;24.752;2023-03-31T06:40:21;14.20;;;8.30;;
70342;SDS011;57767;42.068;24.752;2023-03-31T06:41:23;15.10;;;7.97;;
70342;SDS011;57767;42.068;24.752;2023-03-31T06:42:24;22.00;;;9.55;;
70342;SDS011;57767;42.068;24.752;2023-03-31T06:43:26;14.95;;;8.80;;
70342;SDS011;57767;42.068;24.752;2023-03-31T06:44:28;12.93;;;7.40;;
70342;SDS011;57767;42.068;24.752;2023-03-31T06:45:29;15.75;;;7.85;;
70342;SDS011;57767;42.068;24.752;2023-03-31T06:46:31;16.10;;;7.68;;
70342;SDS011;57767;42.068;24.752;2023-03-31T06:47:33;12.15;;;5.80;;
70342;SDS011;57767;42.068;24.752;2023-03-31T06:48:35;12.80;;;7.32;;
70342;SDS011;57767;42.068;24.752;2023-03-31T06:49:37;14.05;;;5.90;;
70342;SDS011;57767;42.068;24.752;2023-03-31T06:50:39;8.40;;;5.50;;
70342;SDS011;57767;42.068;24.752;2023-03-31T06:51:42;7.07;;;4.75;;
70342;SDS011;57767;42.068;24.752;2023-03-31T06:52:46;8.00;;;4.53;;
70342;SDS011;57767;42.068;24.752;2023-03-31T06:53:48;6.80;;;4.72;;
70342;SDS011;57767;42.068;24.752;2023-03-31T06:54:49;10.60;;;5.32;;
70342;SDS011;57767;42.068;24.752;2023-03-31T06:55:51;10.48;;;5.55;;
70342;SDS011;57767;42.068;24.752;2023-03-31T06:56:53;8.75;;;6.03;;
70342;SDS011;57767;42.068;24.752;2023-03-31T06:57:55;10.40;;;6.28;;
70342;SDS011;57767;42.068;24.752;2023-03-31T06:58:56;7.45;;;5.85;;
70342;SDS011;57767;42.068;24.752;2023-03-31T06:59:58;9.02;;;5.65;;
70342;SDS011;57767;42.068;24.752;2023-03-31T07:01:01;7.95;;;5.45;;
70342;SDS011;57767;42.068;24.752;2023-03-31T07:02:05;12.10;;;6.10;;
70342;SDS011;57767;42.068;24.752;2023-03-31T07:03:07;12.20;;;6.97;;